Time;durP1;ratioP1;P1;durP2;ratioP2;P2;SDS_P1;SDS_P2;PMS_P1;PMS_P2;Temp;Humidity;BMP_temperature;BMP_pressure;BME280_temperature;BME280_humidity;BME280_pressure;Samples;Min_cycle;Max_cycle;Signal;HPM_P1;HPM_P2
2021/12/05 00:23:16;;;;;;;0.00;0.00;;;;;;;4.32;75.97;100426.44;7349896;19;20002;-61
2021/12/05 00:25:47;;;;;;;0.10;0.10;;;;;;;4.35;75.50;100429.00;7357707;19;20017;-61
2021/12/05 00:29:09;;;;;;;0.00;0.00;;;;;;;4.37;75.87;100445.38;7351919;19;20010;-62
2021/12/05 00:39:30;;;;;;;0.00;0.00;;;;;;;4.50;75.24;100466.03;7357721;19;20771;-61
2021/12/05 00:42:39;;;;;;;0.03;0.03;;;;;;;4.41;75.56;100434.19;7256076;19;2004578;-61
2021/12/05 01:16:38;;;;;;;0.03;0.03;;;;;;;4.66;75.40;100473.78;7352543;19;20007;-61
2021/12/05 01:19:07;;;;;;;0.00;0.00;;;;;;;4.67;75.68;100472.06;7350100;19;20022;-61
2021/12/05 01:21:34;;;;;;;0.00;0.00;;;;;;;4.67;75.42;100472.06;7353760;19;20009;-61
2021/12/05 01:34:18;;;;;;;0.00;0.00;;;;;;;4.64;75.63;100487.56;7356259;19;20019;-62
2021/12/05 02:07:40;;;;;;;;;;;;;;;4.73;75.73;100512.56;7359884;19;20012;-61
2021/12/05 02:29:21;;;;;;;0.00;0.00;;;;;;;4.63;75.24;100540.16;7364926;19;20037;-61
2021/12/05 02:41:08;;;;;;;0.00;0.00;;;;;;;4.57;75.68;100585.00;7362289;19;20030;-61
2021/12/05 02:43:38;;;;;;;0.00;0.00;;;;;;;4.57;75.60;100581.56;7262421;19;2004617;-62
2021/12/05 02:46:05;;;;;;;0.10;0.10;;;;;;;4.60;75.71;100584.13;7364223;19;20473;-61
2021/12/05 02:48:34;;;;;;;0.00;0.00;;;;;;;4.61;75.91;100588.41;7363559;19;20498;-62
2021/12/05 02:51:03;;;;;;;0.10;0.10;;;;;;;4.61;75.56;100572.91;7364241;19;20438;-61
2021/12/05 02:53:37;;;;;;;0.00;0.00;;;;;;;4.61;75.74;100585.84;7365619;19;20014;-61
2021/12/05 02:56:04;;;;;;;0.10;0.10;;;;;;;4.48;75.66;100563.44;7365799;19;20021;-61
2021/12/05 03:03:30;;;;;;;0.00;0.00;;;;;;;4.66;75.56;100607.38;7365439;19;20003;-61
2021/12/05 03:06:03;;;;;;;0.00;0.00;;;;;;;4.67;75.81;100609.13;7366316;19;20029;-61
2021/12/05 03:08:28;;;;;;;0.00;0.00;;;;;;;4.66;75.81;100621.22;7365562;19;20361;-61
2021/12/05 03:10:55;;;;;;;0.10;0.10;;;;;;;4.67;75.59;100632.41;7367404;19;20002;-61
2021/12/05 03:13:22;;;;;;;0.03;0.03;;;;;;;4.52;75.54;100614.31;7364090;19;20010;-61
2021/12/05 03:15:47;;;;;;;0.10;0.10;;;;;;;4.63;75.37;100641.03;7354106;19;20054;-62
2021/12/05 03:18:12;;;;;;;0.10;0.10;;;;;;;4.63;75.42;100641.03;7364992;19;20007;-61
2021/12/05 03:20:38;;;;;;;0.03;0.03;;;;;;;4.61;75.31;100638.44;7363506;19;20022;-61
2021/12/05 03:23:03;;;;;;;0.00;0.00;;;;;;;4.57;75.71;100628.09;7364388;19;20002;-61
2021/12/05 03:25:29;;;;;;;0.00;0.00;;;;;;;4.59;75.84;100634.13;7366011;19;20010;-61
2021/12/05 03:27:55;;;;;;;0.00;0.00;;;;;;;4.58;75.63;100637.56;7364674;19;20569;-61
2021/12/05 03:30:24;;;;;;;0.00;0.00;;;;;;;4.59;76.06;100636.72;7365854;19;20047;-61
2021/12/05 03:32:52;;;;;;;0.10;0.10;;;;;;;4.56;76.03;100624.66;7367730;19;20014;-61
2021/12/05 03:35:22;;;;;;;0.08;0.08;;;;;;;4.56;76.00;100624.66;7362467;19;20038;-62
2021/12/05 03:37:48;;;;;;;0.00;0.00;;;;;;;4.56;75.70;100623.75;7365224;19;20065;-62
2021/12/05 03:40:14;;;;;;;0.00;0.00;;;;;;;4.56;75.90;100623.75;7365656;19;20011;-62
2021/12/05 03:42:40;;;;;;;0.00;0.00;;;;;;;4.56;76.07;100628.94;7360139;19;20015;-61
2021/12/05 03:45:11;;;;;;;0.00;0.00;;;;;;;4.58;76.10;100632.41;7363694;19;20041;-61
2021/12/05 03:47:37;;;;;;;0.05;0.05;;;;;;;4.59;75.95;100634.13;7359913;19;20122;-61
2021/12/05 03:50:07;;;;;;;0.10;0.10;;;;;;;4.58;76.09;100643.59;7364451;19;20137;-61
2021/12/05 03:52:33;;;;;;;0.10;0.10;;;;;;;4.62;75.88;100649.66;7364881;19;20419;-61
2021/12/05 03:54:59;;;;;;;0.00;0.00;;;;;;;4.55;75.90;100634.97;7364712;19;20082;-62
2021/12/05 03:57:24;;;;;;;0.10;0.10;;;;;;;4.66;76.24;100659.13;7364815;19;20013;-62
2021/12/05 03:59:50;;;;;;;0.00;0.00;;;;;;;4.67;76.03;100658.28;7361546;19;20010;-61
2021/12/05 04:02:15;;;;;;;0.00;0.00;;;;;;;4.68;76.04;100649.66;7364849;19;20010;-61
2021/12/05 04:04:41;;;;;;;0.10;0.10;;;;;;;4.68;76.30;100653.09;7361176;19;20013;-62
2021/12/05 04:07:07;;;;;;;0.10;0.10;;;;;;;4.71;75.70;100662.56;7361208;19;20014;-61
2021/12/05 04:09:34;;;;;;;0.10;0.10;;;;;;;4.71;76.06;100665.16;7364366;19;20013;-62
2021/12/05 04:12:02;;;;;;;0.00;0.00;;;;;;;4.72;75.99;100668.63;7364888;19;20002;-62
2021/12/05 04:14:42;;;;;;;0.00;0.00;;;;;;;4.68;76.08;100678.09;7360231;19;20737;-61
2021/12/05 04:17:09;;;;;;;0.10;0.10;;;;;;;4.74;75.96;100692.75;7365670;19;20010;-61
2021/12/05 04:19:36;;;;;;;0.03;0.03;;;;;;;4.72;75.91;100695.34;7359094;19;20018;-61
2021/12/05 04:22:03;;;;;;;0.00;0.00;;;;;;;4.72;76.06;100694.50;7362623;19;20007;-62
2021/12/05 04:24:29;;;;;;;0.10;0.10;;;;;;;4.71;75.94;100706.53;7367225;19;20014;-61
2021/12/05 04:26:54;;;;;;;0.10;0.10;;;;;;;4.71;75.99;100709.13;7367235;19;20044;-62
2021/12/05 04:29:20;;;;;;;0.10;0.10;;;;;;;4.72;75.89;100722.94;7363967;19;20002;-61
2021/12/05 04:31:45;;;;;;;0.00;0.00;;;;;;;4.71;76.13;100722.06;7365696;19;20559;-61
2021/12/05 04:34:12;;;;;;;0.10;0.10;;;;;;;4.71;76.13;100729.81;7364658;19;20947;-61
2021/12/05 04:36:38;;;;;;;0.00;0.00;;;;;;;4.71;75.90;100729.81;7363176;19;20557;-61
2021/12/05 04:39:05;;;;;;;0.00;0.00;;;;;;;4.71;75.78;100728.97;7365826;19;20031;-62
2021/12/05 04:41:31;;;;;;;0.00;0.00;;;;;;;4.69;75.72;100729.81;7364483;19;20082;-61
2021/12/05 04:44:00;;;;;;;0.00;0.00;;;;;;;4.71;75.78;100741.91;7366404;19;20014;-61
2021/12/05 04:46:27;;;;;;;0.00;0.00;;;;;;;4.68;76.17;100741.03;7364372;19;20010;-61
2021/12/05 04:48:55;;;;;;;0.00;0.00;;;;;;;4.69;75.82;100744.50;7358142;19;25237;-61
2021/12/05 04:51:24;;;;;;;0.00;0.00;;;;;;;4.69;76.30;100744.50;7361377;19;20015;-61
2021/12/05 04:53:50;;;;;;;0.00;0.00;;;;;;;4.66;75.84;100740.19;7363510;19;20086;-61
2021/12/05 04:56:16;;;;;;;0.00;0.00;;;;;;;4.68;76.18;100747.94;7361108;19;20030;-61
2021/12/05 04:58:42;;;;;;;0.00;0.00;;;;;;;4.67;76.24;100748.81;7364417;19;20073;-62
2021/12/05 05:01:08;;;;;;;0.00;0.00;;;;;;;4.66;76.05;100754.81;7363171;19;20491;-61
2021/12/05 05:03:34;;;;;;;0.03;0.03;;;;;;;4.66;75.97;100750.53;7360336;19;20014;-61
2021/12/05 05:06:07;;;;;;;0.00;0.00;;;;;;;4.65;76.12;100748.78;7365149;19;20509;-61
2021/12/05 05:08:32;;;;;;;0.00;0.00;;;;;;;4.65;76.32;100748.78;7365308;19;20110;-62
2021/12/05 05:11:01;;;;;;;0.10;0.10;;;;;;;4.65;76.03;100753.09;7367563;19;20039;-61
2021/12/05 05:13:26;;;;;;;0.00;0.00;;;;;;;4.62;76.29;100747.94;7368852;19;20454;-61
2021/12/05 05:15:53;;;;;;;0.10;0.10;;;;;;;4.63;76.26;100747.06;7369160;19;20018;-61
2021/12/05 05:18:20;;;;;;;0.07;0.07;;;;;;;4.62;76.18;100758.28;7367208;19;20006;-61
2021/12/05 05:20:56;;;;;;;0.10;0.10;;;;;;;4.61;75.94;100759.13;7359118;19;20568;-61
2021/12/05 05:26:50;;;;;;;0.10;0.10;;;;;;;4.58;76.31;100767.75;7367435;19;20014;-60
2021/12/05 05:50:14;;;;;;;0.03;0.03;;;;;;;4.48;76.10;100794.44;7366106;19;20018;-61
2021/12/05 05:52:40;;;;;;;0.00;0.00;;;;;;;4.46;76.46;100798.75;7368869;19;20035;-61
2021/12/05 05:55:06;;;;;;;0.10;0.10;;;;;;;4.45;76.38;100809.91;7363391;19;20018;-61
2021/12/05 05:57:35;;;;;;;0.10;0.10;;;;;;;4.45;76.57;100819.41;7366314;19;20058;-61
2021/12/05 06:00:15;;;;;;;0.00;0.00;;;;;;;4.45;76.49;100822.00;7368450;19;20011;-61
2021/12/05 06:05:26;;;;;;;0.00;0.00;;;;;;;4.41;76.13;100827.16;7370007;19;20009;-61
2021/12/05 06:07:52;;;;;;;0.10;0.10;;;;;;;4.39;76.52;100834.03;7367502;19;20014;-60
2021/12/05 06:10:24;;;;;;;0.00;0.00;;;;;;;4.38;76.13;100827.13;7366971;19;20110;-61
2021/12/05 06:12:50;;;;;;;0.00;0.00;;;;;;;4.35;76.14;100834.88;7368009;19;20654;-61
2021/12/05 06:15:18;;;;;;;0.10;0.10;;;;;;;4.35;76.12;100836.59;7360235;19;20018;-61
2021/12/05 06:17:44;;;;;;;0.08;0.08;;;;;;;4.33;76.64;100838.31;7366938;19;20371;-61
2021/12/05 06:20:12;;;;;;;0.00;0.00;;;;;;;4.31;76.35;100845.19;7363506;19;20117;-61
2021/12/05 06:22:37;;;;;;;0.10;0.10;;;;;;;4.26;76.54;100834.84;7364347;19;20050;-61
2021/12/05 06:25:07;;;;;;;0.10;0.10;;;;;;;4.17;76.62;100827.03;7366323;19;20018;-61
2021/12/05 06:27:33;;;;;;;0.10;0.10;;;;;;;4.24;76.27;100844.28;7361681;19;20015;-61
2021/12/05 06:30:10;;;;;;;0.10;0.10;;;;;;;4.24;76.25;100854.63;7366643;19;20034;-60
2021/12/05 06:38:41;;;;;;;0.10;0.10;;;;;;;4.19;76.71;100851.16;7367255;19;20027;-61
2021/12/05 06:46:11;;;;;;;0.03;0.03;;;;;;;4.13;76.41;100854.56;7366913;19;20050;-61
2021/12/05 06:48:36;;;;;;;0.00;0.00;;;;;;;4.10;76.67;100858.84;7366500;19;20021;-60
2021/12/05 06:51:03;;;;;;;0.10;0.10;;;;;;;4.08;76.33;100873.50;7367286;19;20014;-61
2021/12/05 06:53:29;;;;;;;0.08;0.08;;;;;;;4.06;76.46;100880.38;7366813;19;20014;-61
2021/12/05 06:55:54;;;;;;;0.10;0.10;;;;;;;3.87;76.44;100867.31;7366769;19;20797;-61
2021/12/05 06:58:20;;;;;;;0.00;0.00;;;;;;;4.00;76.34;100894.09;7361471;19;20011;-60
2021/12/05 07:00:45;;;;;;;0.08;0.08;;;;;;;3.97;76.73;100901.00;7367615;19;20078;-61
2021/12/05 07:03:11;;;;;;;0.10;0.10;;;;;;;3.96;76.59;100904.44;7364637;19;20418;-61
2021/12/05 07:05:52;;;;;;;0.10;0.10;;;;;;;3.95;76.62;100902.69;7363919;19;20478;-60
2021/12/05 07:08:19;;;;;;;0.00;0.00;;;;;;;3.84;76.85;100895.72;7362327;19;20411;-60
2021/12/05 07:13:45;;;;;;;0.10;0.10;;;;;;;3.75;76.66;100898.25;7365114;19;20014;-61
2021/12/05 07:19:29;;;;;;;0.00;0.00;;;;;;;3.82;76.47;100918.09;7365083;19;20077;-60
2021/12/05 07:42:45;;;;;;;0.10;0.10;;;;;;;3.70;77.34;100938.66;7359972;19;20010;-60
2021/12/05 07:45:19;;;;;;;0.10;0.10;;;;;;;3.69;77.39;100942.06;7360849;19;20006;-61
2021/12/05 07:47:49;;;;;;;0.10;0.10;;;;;;;3.69;77.01;100941.22;7360562;19;20499;-61
2021/12/05 07:50:15;;;;;;;0.05;0.05;;;;;;;3.68;77.08;100945.50;7359539;19;20017;-61
2021/12/05 07:52:45;;;;;;;0.10;0.10;;;;;;;3.70;77.21;100953.25;7361125;19;20628;-61
2021/12/05 07:55:24;;;;;;;0.10;0.10;;;;;;;3.69;77.02;100960.16;7354323;19;20018;-62
2021/12/05 08:00:30;;;;;;;0.00;0.00;;;;;;;3.72;77.62;100967.94;7361396;19;20007;-60
2021/12/05 08:16:41;;;;;;;0.10;0.10;;;;;;;3.75;77.60;100983.47;7358606;19;20104;-60
2021/12/05 08:19:07;;;;;;;0.10;0.10;;;;;;;3.75;77.45;100986.06;7354664;19;20018;-61
2021/12/05 08:21:32;;;;;;;0.00;0.00;;;;;;;3.75;77.53;100988.66;7352860;19;20024;-60
2021/12/05 08:23:58;;;;;;;0.10;0.10;;;;;;;3.76;77.71;101000.69;7360962;19;20102;-61
2021/12/05 08:26:31;;;;;;;0.10;0.10;;;;;;;3.77;77.59;101002.44;7363331;19;20019;-61
2021/12/05 08:29:05;;;;;;;0.10;0.10;;;;;;;3.78;77.57;101009.31;7358446;19;20375;-61
2021/12/05 09:31:00;;;;;;;0.10;0.10;;;;;;;4.71;77.13;101094.56;7368435;19;20021;-61
2021/12/05 10:09:27;;;;;;;0.00;0.00;;;;;;;6.75;75.34;101127.31;7361771;19;20014;-61
2021/12/05 10:12:22;;;;;;;0.00;0.00;;;;;;;7.09;74.78;101137.66;7362296;19;20570;-61
2021/12/05 10:15:13;;;;;;;0.00;0.00;;;;;;;7.55;73.86;101141.00;7259331;19;2004468;-61
2021/12/05 10:19:22;;;;;;;0.00;0.00;;;;;;;8.04;74.76;101141.69;7257523;19;2004197;-61
2021/12/05 10:38:20;;;;;;;0.00;0.00;;;;;;;10.39;67.64;101150.69;7363324;19;20027;-61
2021/12/05 10:41:05;;;;;;;0.00;0.00;;;;;;;10.63;67.08;101158.16;7361062;19;20007;-61
2021/12/05 10:43:32;;;;;;;0.00;0.00;;;;;;;10.73;66.00;101142.34;7365180;19;20018;-61
2021/12/05 10:46:10;;;;;;;0.00;0.00;;;;;;;11.07;65.28;101164.41;7365016;19;20033;-61
2021/12/05 10:48:45;;;;;;;0.08;0.08;;;;;;;11.35;65.60;101169.13;7360692;19;20033;-60
2021/12/05 10:51:27;;;;;;;0.10;0.10;;;;;;;11.53;65.51;101176.66;7362630;19;20486;-61
2021/12/05 10:54:21;;;;;;;0.00;0.00;;;;;;;11.63;66.51;101180.81;7361270;19;20018;-61
2021/12/05 10:56:51;;;;;;;0.00;0.00;;;;;;;11.59;63.88;101189.59;7254435;19;2004400;-61
2021/12/05 10:59:35;;;;;;;0.10;0.10;;;;;;;11.61;64.77;101187.84;7356058;19;20034;-61
2021/12/05 11:02:05;;;;;;;0.08;0.08;;;;;;;11.61;64.21;101181.75;7358075;19;20022;-61
2021/12/05 11:04:38;;;;;;;0.10;0.10;;;;;;;11.73;64.58;101191.09;7361676;19;20014;-61
2021/12/05 11:07:10;;;;;;;0.00;0.00;;;;;;;11.92;64.17;101193.34;7356005;19;20473;-62
2021/12/05 11:09:40;;;;;;;0.00;0.00;;;;;;;12.12;63.99;101195.56;7359559;19;20031;-61
2021/12/05 11:12:18;;;;;;;0.10;0.10;;;;;;;12.34;63.76;101179.38;7358628;19;20075;-61
2021/12/05 11:14:45;;;;;;;0.05;0.05;;;;;;;12.59;62.65;101183.16;7357074;19;20017;-62
2021/12/05 11:17:16;;;;;;;0.00;0.00;;;;;;;12.86;63.07;101178.16;7360570;19;20041;-62
2021/12/05 11:19:46;;;;;;;0.00;0.00;;;;;;;13.03;61.75;101168.13;7363388;19;20035;-61
2021/12/05 11:22:29;;;;;;;0.00;0.00;;;;;;;13.35;64.26;101183.06;7358508;19;20014;-62
2021/12/05 11:25:10;;;;;;;0.10;0.10;;;;;;;13.55;62.65;101190.38;7360512;19;20010;-61
2021/12/05 11:27:47;;;;;;;0.10;0.10;;;;;;;13.70;60.68;101184.72;7352448;19;20026;-61
2021/12/05 11:30:19;;;;;;;0.00;0.00;;;;;;;13.89;61.46;101184.19;7357316;19;20018;-62
2021/12/05 11:33:01;;;;;;;0.10;0.10;;;;;;;14.06;61.38;101175.84;7360539;19;20021;-62
2021/12/05 11:35:39;;;;;;;0.00;0.00;;;;;;;14.21;60.45;101170.13;7354674;19;20014;-62
2021/12/05 11:38:10;;;;;;;0.10;0.10;;;;;;;14.33;60.65;101171.50;7359029;19;20019;-61
2021/12/05 11:40:50;;;;;;;0.00;0.00;;;;;;;14.41;61.37;101156.38;7361506;19;20010;-62
2021/12/05 11:43:19;;;;;;;0.00;0.00;;;;;;;14.37;58.87;101144.25;7362467;19;20082;-61
2021/12/05 11:46:08;;;;;;;0.10;0.10;;;;;;;14.59;62.75;101171.56;7359432;19;20003;-62
2021/12/05 11:48:44;;;;;;;0.10;0.10;;;;;;;14.66;59.90;101173.13;7362993;19;20085;-62
2021/12/05 11:51:28;;;;;;;0.10;0.10;;;;;;;14.81;60.41;101189.31;7363146;19;20010;-62
2021/12/05 11:54:00;;;;;;;0.10;0.10;;;;;;;14.93;58.74;101186.28;7362877;19;20018;-62
2021/12/05 11:56:31;;;;;;;0.00;0.00;;;;;;;15.10;59.95;101189.19;7359221;19;19999;-62
2021/12/05 11:59:14;;;;;;;0.00;0.00;;;;;;;15.29;61.54;101198.19;7357383;19;20547;-61
2021/12/05 12:01:54;;;;;;;0.00;0.00;;;;;;;15.40;58.67;101199.59;7354914;19;20030;-61
2021/12/05 12:04:24;;;;;;;0.10;0.10;;;;;;;15.52;57.58;101191.28;7362478;19;20025;-62
2021/12/05 12:07:17;;;;;;;0.10;0.10;;;;;;;15.75;61.59;101191.31;7358221;19;20017;-61
2021/12/05 12:09:44;;;;;;;0.08;0.08;;;;;;;15.85;57.42;101188.38;7257618;19;2004344;-62
2021/12/05 12:12:10;;;;;;;0.03;0.03;;;;;;;15.92;56.96;101166.16;7359214;19;20010;-61
2021/12/05 12:14:36;;;;;;;0.10;0.10;;;;;;;16.13;57.01;101181.16;7361715;19;20347;-61
2021/12/05 12:17:05;;;;;;;0.00;0.00;;;;;;;16.29;55.80;101168.25;7351662;19;20088;-62
2021/12/05 12:19:30;;;;;;;0.00;0.00;;;;;;;16.42;56.65;101164.19;7364089;19;20015;-62
2021/12/05 12:22:00;;;;;;;0.10;0.10;;;;;;;16.54;55.75;101157.59;7357517;19;20094;-62
2021/12/05 12:24:26;;;;;;;0.10;0.10;;;;;;;16.64;54.99;101163.34;7354533;19;20027;-61
2021/12/05 12:26:53;;;;;;;0.10;0.10;;;;;;;16.73;55.88;101174.44;7358957;19;20562;-62
2021/12/05 12:29:20;;;;;;;0.10;0.10;;;;;;;16.78;56.22;101172.47;7355047;19;20034;-62
2021/12/05 12:31:48;;;;;;;0.10;0.10;;;;;;;16.90;55.35;101170.22;7353778;19;20026;-61
2021/12/05 12:34:18;;;;;;;0.03;0.03;;;;;;;16.99;55.40;101164.59;7357172;19;20022;-62
2021/12/05 12:36:53;;;;;;;0.10;0.10;;;;;;;17.10;57.20;101170.25;7357021;19;20007;-61
2021/12/05 12:39:19;;;;;;;0.10;0.10;;;;;;;17.13;56.18;101175.38;7351390;19;20010;-62
2021/12/05 12:42:13;;;;;;;0.00;0.00;;;;;;;17.31;59.47;101166.69;7350311;19;20819;-61
2021/12/05 12:44:57;;;;;;;0.10;0.10;;;;;;;17.46;58.84;101180.16;7257730;19;2004232;-62
2021/12/05 12:47:40;;;;;;;0.10;0.10;;;;;;;17.53;56.87;101182.44;7360894;19;20010;-61
2021/12/05 12:50:50;;;;;;;0.10;0.10;;;;;;;17.57;57.82;101183.19;7361182;19;20071;-62
2021/12/05 12:53:21;;;;;;;0.10;0.10;;;;;;;17.50;56.07;101184.38;7257062;19;2004473;-61
2021/12/05 12:56:00;;;;;;;0.10;0.10;;;;;;;17.47;57.17;101185.38;7358363;19;20013;-61
2021/12/05 12:58:49;;;;;;;0.10;0.10;;;;;;;17.47;58.51;101187.16;7357357;19;20011;-63
2021/12/05 13:12:33;;;;;;;0.00;0.00;;;;;;;17.14;55.43;101194.75;7259646;19;2005760;-61
2021/12/05 13:15:07;;;;;;;0.00;0.00;;;;;;;16.93;54.80;101191.19;7362278;19;20025;-61
2021/12/05 13:17:44;;;;;;;0.00;0.00;;;;;;;16.64;55.32;101185.31;7355705;19;20010;-61
2021/12/05 13:20:14;;;;;;;0.10;0.10;;;;;;;16.33;55.06;101193.56;7363932;19;20411;-61
2021/12/05 13:23:00;;;;;;;0.10;0.10;;;;;;;16.03;57.78;101193.81;7359782;19;20006;-61
2021/12/05 13:25:27;;;;;;;0.00;0.00;;;;;;;15.66;55.74;101189.06;7361757;19;20010;-62
2021/12/05 13:27:52;;;;;;;0.00;0.00;;;;;;;15.34;54.80;101187.50;7354255;19;21096;-61
2021/12/05 13:30:32;;;;;;;0.00;0.00;;;;;;;15.22;57.88;101207.22;7359950;19;20017;-61
2021/12/05 13:33:16;;;;;;;0.00;0.00;;;;;;;14.99;58.48;101207.09;7360747;19;20011;-61
2021/12/05 13:35:43;;;;;;;0.10;0.10;;;;;;;14.79;56.60;101213.88;7362313;19;20348;-61
2021/12/05 13:38:40;;;;;;;0.00;0.00;;;;;;;14.66;60.11;101215.19;7363485;19;20023;-60
2021/12/05 13:41:16;;;;;;;;;;;;;;;14.58;61.82;101217.19;7264420;19;2004635;-61
2021/12/05 13:43:53;;;;;;;0.00;0.00;;;;;;;14.49;58.02;101220.09;7366695;19;19922;-62
2021/12/05 13:46:38;;;;;;;0.00;0.00;;;;;;;14.45;59.24;101213.19;7367395;19;20090;-61
2021/12/05 13:49:30;;;;;;;0.10;0.10;;;;;;;14.45;60.53;101211.41;7365377;19;20695;-61
2021/12/05 13:52:32;;;;;;;0.10;0.10;;;;;;;14.53;60.97;101213.81;7265455;19;2004707;-61
2021/12/05 13:55:39;;;;;;;0.10;0.10;;;;;;;14.65;60.50;101208.22;7258368;19;2004401;-61
2021/12/05 13:58:22;;;;;;;0.00;0.00;;;;;;;14.75;59.61;101207.00;7257208;19;2004332;-61
2021/12/05 14:00:51;;;;;;;0.00;0.00;;;;;;;14.85;58.25;101198.81;7363349;19;19990;-61
2021/12/05 14:03:44;;;;;;;0.10;0.10;;;;;;;14.97;60.68;101203.69;7357510;19;20044;-61
2021/12/05 14:06:31;;;;;;;0.10;0.10;;;;;;;15.08;59.68;101205.94;7265410;19;2004803;-61
2021/12/05 14:09:00;;;;;;;0.10;0.10;;;;;;;15.10;58.89;101207.59;7356876;19;20006;-61
2021/12/05 14:11:26;;;;;;;0.00;0.00;;;;;;;15.14;56.45;101203.97;7366447;19;20413;-61
2021/12/05 14:13:52;;;;;;;0.10;0.10;;;;;;;15.23;56.82;101216.81;7368306;19;20780;-61
2021/12/05 14:16:19;;;;;;;0.00;0.00;;;;;;;15.14;55.68;101190.81;7363569;19;20473;-61
2021/12/05 14:18:45;;;;;;;0.10;0.10;;;;;;;15.24;58.18;101200.13;7365518;19;20544;-61
2021/12/05 14:21:15;;;;;;;0.00;0.00;;;;;;;15.23;56.01;101206.28;7364964;19;20048;-61
2021/12/05 14:23:51;;;;;;;0.10;0.10;;;;;;;15.16;56.95;101203.94;7363432;19;20011;-61
2021/12/05 14:26:20;;;;;;;0.10;0.10;;;;;;;15.02;54.37;101199.13;7367466;19;20014;-60
2021/12/05 14:29:02;;;;;;;0.00;0.00;;;;;;;14.88;56.70;101209.22;7364224;19;20011;-61
2021/12/05 14:31:35;;;;;;;0.10;0.10;;;;;;;14.66;55.81;101212.56;7367774;19;20101;-61
2021/12/05 14:34:01;;;;;;;0.00;0.00;;;;;;;14.45;55.63;101210.56;7363223;19;20010;-61
2021/12/05 14:36:31;;;;;;;0.10;0.10;;;;;;;14.26;55.01;101208.47;7368553;19;20037;-61
2021/12/05 14:39:08;;;;;;;0.10;0.10;;;;;;;14.01;57.08;101210.97;7359803;19;20358;-60
2021/12/05 14:41:34;;;;;;;0.08;0.08;;;;;;;13.80;56.12;101215.97;7365866;19;20017;-60
2021/12/05 14:44:00;;;;;;;0.00;0.00;;;;;;;13.58;57.62;101210.41;7361958;19;20006;-61
2021/12/05 14:46:26;;;;;;;0.00;0.00;;;;;;;13.26;57.50;101192.91;7363858;19;20011;-61
2021/12/05 14:48:59;;;;;;;0.00;0.00;;;;;;;13.12;58.57;101191.47;7369054;19;20010;-60
2021/12/05 14:51:52;;;;;;;0.00;0.00;;;;;;;13.01;59.23;101214.47;7362549;19;20086;-61
2021/12/05 14:54:37;;;;;;;0.00;0.00;;;;;;;12.85;58.71;101207.88;7261530;19;2004320;-61
2021/12/05 14:57:31;;;;;;;0.00;0.00;;;;;;;12.63;59.58;101208.41;7368160;19;20009;-61
2021/12/05 15:00:24;;;;;;;0.00;0.00;;;;;;;12.43;59.66;101206.22;7262597;19;2004333;-61
2021/12/05 15:03:02;;;;;;;0.00;0.00;;;;;;;12.24;59.73;101201.44;7255157;19;2004603;-60
2021/12/05 15:05:28;;;;;;;0.00;0.00;;;;;;;12.07;59.29;101217.50;7362468;19;20100;-60
2021/12/05 15:08:06;;;;;;;0.00;0.00;;;;;;;11.94;60.25;101216.88;7367761;19;20048;-60
2021/12/05 15:10:33;;;;;;;0.00;0.00;;;;;;;11.81;60.46;101215.34;7356644;19;20479;-60
2021/12/05 15:12:59;;;;;;;0.00;0.00;;;;;;;11.64;59.60;101219.16;7369721;19;20026;-61
2021/12/05 15:15:26;;;;;;;0.00;0.00;;;;;;;11.63;59.11;101227.03;7364625;19;20066;-61
2021/12/05 15:17:53;;;;;;;0.00;0.00;;;;;;;11.55;58.71;101240.25;7360473;19;22175;-61
2021/12/05 15:20:22;;;;;;;0.00;0.00;;;;;;;11.51;60.97;101246.44;7364552;19;20011;-61
2021/12/05 15:22:55;;;;;;;0.10;0.10;;;;;;;11.47;59.50;101242.16;7360829;19;20014;-60
2021/12/05 15:25:24;;;;;;;0.10;0.10;;;;;;;11.40;59.90;101240.50;7366541;19;20528;-61
2021/12/05 15:27:50;;;;;;;0.00;0.00;;;;;;;11.34;60.45;101244.09;7359214;19;20088;-60
2021/12/05 15:30:38;;;;;;;0.00;0.00;;;;;;;11.28;59.84;101236.38;7363751;19;20018;-61
2021/12/05 15:33:11;;;;;;;0.00;0.00;;;;;;;11.18;59.85;101234.78;7257166;19;2004347;-60
2021/12/05 15:35:37;;;;;;;0.00;0.00;;;;;;;11.08;61.42;101241.94;7365992;19;20011;-61
2021/12/05 15:38:07;;;;;;;0.10;0.10;;;;;;;11.00;60.53;101246.44;7363879;19;20011;-61
2021/12/05 15:40:36;;;;;;;0.00;0.00;;;;;;;10.90;62.15;101234.41;7358115;19;20010;-60
2021/12/05 15:43:05;;;;;;;0.03;0.03;;;;;;;10.80;61.37;101246.72;7361668;19;20006;-60
2021/12/05 15:45:32;;;;;;;0.10;0.10;;;;;;;10.73;61.47;101246.81;7366888;19;20046;-60
2021/12/05 15:47:57;;;;;;;0.00;0.00;;;;;;;10.62;62.20;101240.00;7360556;19;20014;-60
2021/12/05 15:50:28;;;;;;;0.03;0.03;;;;;;;10.50;61.88;101234.97;7363698;19;20121;-60
2021/12/05 15:52:59;;;;;;;0.00;0.00;;;;;;;10.43;60.37;101233.31;7359413;19;20062;-61
2021/12/05 15:55:39;;;;;;;0.00;0.00;;;;;;;10.36;61.01;101244.72;7360504;19;20014;-60
2021/12/05 15:58:20;;;;;;;0.00;0.00;;;;;;;10.26;59.87;101243.13;7362880;19;20013;-60
2021/12/05 16:00:53;;;;;;;0.10;0.10;;;;;;;10.18;61.45;101237.09;7364362;19;20010;-61
2021/12/05 16:03:24;;;;;;;0.00;0.00;;;;;;;10.07;63.11;101227.66;7354386;19;20050;-60
2021/12/05 16:05:56;;;;;;;0.00;0.00;;;;;;;9.97;62.07;101223.44;7357821;19;20627;-60
2021/12/05 16:08:22;;;;;;;0.00;0.00;;;;;;;9.86;62.11;101225.31;7350566;19;20006;-61
2021/12/05 16:10:50;;;;;;;0.00;0.00;;;;;;;9.76;63.19;101223.69;7359642;19;20459;-60
2021/12/05 16:13:22;;;;;;;0.00;0.00;;;;;;;9.65;63.06;101218.56;7363757;19;20010;-60
2021/12/05 16:15:51;;;;;;;0.00;0.00;;;;;;;9.55;63.76;101216.94;7363598;19;20006;-61
2021/12/05 16:18:18;;;;;;;0.03;0.03;;;;;;;9.44;62.96;101216.19;7361537;19;20010;-60
2021/12/05 16:20:49;;;;;;;0.00;0.00;;;;;;;9.36;63.78;101224.06;7359239;19;20018;-61
2021/12/05 16:23:30;;;;;;;0.05;0.05;;;;;;;9.25;63.15;101234.59;7366290;19;20098;-61
2021/12/05 16:26:16;;;;;;;0.00;0.00;;;;;;;9.13;63.21;101231.25;2524762;19;10021927;-60
2021/12/05 16:28:54;;;;;;;0.00;0.00;;;;;;;9.02;63.80;101232.19;6548112;19;10000954;-61
2021/12/05 16:31:35;;;;;;;0.10;0.10;;;;;;;8.84;64.63;101216.69;7359823;19;20042;-61
2021/12/05 16:34:09;;;;;;;0.00;0.00;;;;;;;8.72;64.21;101201.19;7359496;19;20458;-61
2021/12/05 16:36:47;;;;;;;0.00;0.00;;;;;;;8.70;64.75;101223.72;7362693;19;20070;-61
2021/12/05 16:39:16;;;;;;;0.10;0.10;;;;;;;8.60;65.19;101230.75;7355926;19;20489;-61
2021/12/05 16:41:51;;;;;;;0.00;0.00;;;;;;;8.43;64.67;101228.25;7360287;19;20018;-61
2021/12/05 16:44:20;;;;;;;0.00;0.00;;;;;;;8.43;65.64;101232.59;7362802;19;20052;-61
2021/12/05 16:47:01;;;;;;;0.00;0.00;;;;;;;8.35;65.86;101227.38;7358351;19;20093;-61
2021/12/05 16:49:30;;;;;;;0.00;0.00;;;;;;;8.27;66.53;101223.97;7360943;19;20018;-60
2021/12/05 16:52:04;;;;;;;0.00;0.00;;;;;;;8.21;66.14;101229.16;7352296;19;20015;-60
2021/12/05 16:54:50;;;;;;;0.00;0.00;;;;;;;8.14;66.38;101223.13;7361122;19;20031;-61
2021/12/05 16:57:22;;;;;;;0.00;0.00;;;;;;;8.06;65.98;101217.97;7361889;19;20011;-61
2021/12/05 17:00:00;;;;;;;0.00;0.00;;;;;;;7.99;65.45;101216.25;7352111;19;20015;-61
2021/12/05 17:02:27;;;;;;;0.00;0.00;;;;;;;7.91;65.76;101219.78;7357326;19;20014;-61
2021/12/05 17:05:15;;;;;;;0.00;0.00;;;;;;;7.80;65.85;101225.00;7354643;19;20011;-61
2021/12/05 17:07:43;;;;;;;0.00;0.00;;;;;;;7.69;65.91;101216.38;7260485;19;2004500;-61
2021/12/05 17:10:29;;;;;;;0.03;0.03;;;;;;;7.60;65.90;101219.84;7357611;19;20038;-61
2021/12/05 17:13:15;;;;;;;0.00;0.00;;;;;;;7.48;66.17;101212.94;7364546;19;20018;-61
2021/12/05 17:15:59;;;;;;;0.00;0.00;;;;;;;7.38;66.79;101210.38;7360332;19;20086;-61
2021/12/05 17:18:42;;;;;;;0.00;0.00;;;;;;;7.29;67.00;101211.22;7357633;19;20015;-60
2021/12/05 17:21:14;;;;;;;0.00;0.00;;;;;;;7.21;66.65;101207.78;7363799;19;20037;-61
2021/12/05 17:23:51;;;;;;;0.10;0.10;;;;;;;7.12;66.83;101207.78;7364057;19;20938;-61
2021/12/05 17:26:24;;;;;;;0.00;0.00;;;;;;;7.03;66.72;101204.31;7359443;19;20030;-60
2021/12/05 17:28:56;;;;;;;0.00;0.00;;;;;;;6.85;67.17;101178.38;7360778;19;20391;-60
2021/12/05 17:31:32;;;;;;;0.03;0.03;;;;;;;6.91;67.44;101203.47;7364837;19;20029;-61
2021/12/05 17:34:06;;;;;;;0.05;0.05;;;;;;;6.84;67.16;101196.53;7364106;19;20025;-60
2021/12/05 17:36:43;;;;;;;0.00;0.00;;;;;;;6.79;67.51;101201.72;7362591;19;20010;-61